Pirauba, Brazil
Current Conditions -  °F | °C
As of 6:00 PM on Sunday 25 Jan 2015 (Local Time) from SBJF Reporting Station
Thunderstorm Thunderstorm  
Wind Chill: 73°   Ceiling: 2500
Heat Index: 73°   Visibility: 6mi
Dew Point: 64°   Wind: 10mph
Humidity: 73%   Direction: 360°N
Pressure: 30.03"   Gusts: NA
Location:  21.28°S, 43.03°W
Report Text: SBJF 252000Z 36009KT 9999 TS VCSH BKN025 FEW030CB 23/18 Q1017
Loading
Personal Weather Stations






























Interactive Weather Map New forecast layout! Learn more

10-Day Weather Forecast

Advertisements
Track Severe Weather on mobile